createdAt,value
2023-03-16T00:00:56.211Z,69.78
2023-03-16T00:03:23.935Z,70.02
2023-03-16T00:05:54.172Z,70.56
2023-03-16T00:08:22.369Z,70.18
2023-03-16T00:10:52.247Z,70.49
2023-03-16T00:13:23.328Z,70.36
2023-03-16T00:15:58.507Z,70.29
2023-03-16T00:18:28.730Z,70.15
2023-03-16T00:21:01.780Z,70.00
2023-03-16T00:23:29.686Z,69.81
2023-03-16T00:26:01.526Z,69.73
2023-03-16T00:28:32.731Z,69.58
2023-03-16T00:31:02.736Z,69.45
2023-03-16T00:33:32.415Z,69.28
2023-03-16T00:36:02.434Z,69.22
2023-03-16T00:38:34.336Z,69.19
2023-03-16T00:41:04.283Z,69.10
2023-03-16T00:43:35.960Z,68.96
2023-03-16T00:46:05.642Z,69.15
2023-03-16T00:48:38.150Z,69.12
2023-03-16T00:51:09.530Z,69.17
2023-03-16T00:53:37.083Z,69.29
2023-03-16T00:56:06.399Z,69.36
2023-03-16T00:58:36.542Z,69.43
2023-03-16T01:01:09.269Z,69.38
2023-03-16T01:03:37.375Z,69.72
2023-03-16T01:06:10.481Z,69.69
2023-03-16T01:08:40.302Z,69.68
2023-03-16T01:11:12.824Z,70.08
2023-03-16T01:13:40.464Z,70.64
2023-03-16T01:16:10.294Z,70.38
2023-03-16T01:18:38.841Z,70.58
2023-03-16T01:21:08.697Z,70.83
2023-03-16T01:23:37.211Z,70.79
2023-03-16T01:26:05.579Z,70.93
2023-03-16T01:28:34.369Z,70.93
2023-03-16T01:31:09.601Z,71.10
2023-03-16T01:33:38.425Z,71.09
2023-03-16T01:36:14.638Z,71.07
2023-03-16T01:38:44.996Z,71.06
2023-03-16T01:41:15.437Z,71.06
2023-03-16T01:43:43.285Z,70.99
2023-03-16T01:46:25.375Z,70.91
2023-03-16T01:49:11.967Z,70.86
2023-03-16T01:51:53.491Z,70.58
2023-03-16T01:54:46.603Z,70.49
2023-03-16T01:57:25.103Z,70.24
2023-03-16T01:59:57.921Z,70.11
2023-03-16T02:02:29.986Z,70.03
2023-03-16T02:05:38.900Z,70.06
2023-03-16T02:08:10.128Z,69.89
2023-03-16T02:10:39.196Z,70.18
2023-03-16T02:13:07.354Z,70.83
2023-03-16T02:15:35.654Z,71.24
2023-03-16T02:18:06.859Z,70.95
2023-03-16T02:20:51.630Z,71.38
2023-03-16T02:23:22.019Z,71.31
2023-03-16T02:26:25.459Z,71.22
2023-03-16T02:29:29.276Z,71.36
2023-03-16T02:31:59.528Z,71.59
2023-03-16T02:34:28.831Z,71.52
2023-03-16T02:36:58.761Z,71.45
2023-03-16T02:39:26.573Z,71.29
2023-03-16T02:41:54.480Z,71.25
2023-03-16T02:44:34.204Z,70.90
2023-03-16T02:47:07.550Z,70.50
2023-03-16T02:49:42.453Z,69.97
2023-03-16T02:52:11.068Z,70.05
2023-03-16T02:54:44.481Z,69.29
2023-03-16T02:57:13.458Z,68.95
2023-03-16T02:59:44.769Z,68.03
2023-03-16T03:02:13.520Z,67.33
2023-03-16T03:04:47.390Z,66.48
2023-03-16T03:07:16.394Z,65.57
2023-03-16T03:09:48.105Z,65.11
2023-03-16T03:12:16.201Z,64.50
2023-03-16T03:14:44.509Z,63.73
2023-03-16T03:17:12.904Z,62.47
2023-03-16T03:19:41.661Z,62.25
2023-03-16T03:22:11.291Z,62.26
2023-03-16T03:24:39.618Z,60.00
2023-03-16T03:27:07.288Z,60.71
2023-03-16T03:29:36.099Z,62.39
2023-03-16T03:32:05.299Z,62.13
2023-03-16T03:34:33.155Z,63.01
2023-03-16T03:37:00.762Z,62.26
2023-03-16T03:39:28.926Z,61.94
2023-03-16T03:41:56.535Z,61.86
2023-03-16T03:44:26.322Z,61.11
2023-03-16T03:46:56.564Z,60.89
2023-03-16T03:49:26.521Z,61.00
2023-03-16T03:51:55.134Z,60.94
2023-03-16T03:54:25.180Z,60.75
2023-03-16T03:56:54.647Z,60.59
2023-03-16T03:59:22.687Z,60.51
2023-03-16T04:02:07.190Z,60.15
2023-03-16T04:04:41.669Z,60.24
2023-03-16T04:07:11.088Z,60.29
2023-03-16T04:09:39.390Z,60.10
2023-03-16T04:12:08.414Z,60.11
2023-03-16T04:14:36.284Z,60.20
2023-03-16T04:17:06.898Z,60.09
2023-03-16T04:19:35.997Z,60.12
2023-03-16T04:22:04.639Z,59.96
2023-03-16T04:24:34.070Z,59.99
2023-03-16T04:27:02.398Z,59.63
2023-03-16T04:29:30.044Z,59.85
2023-03-16T04:31:58.234Z,59.79
2023-03-16T04:34:26.377Z,59.78
2023-03-16T04:36:55.986Z,59.67
2023-03-16T04:39:23.932Z,59.48
2023-03-16T04:41:51.534Z,59.52
2023-03-16T04:44:20.942Z,59.59
2023-03-16T04:46:49.788Z,59.58
2023-03-16T04:49:18.333Z,59.43
2023-03-16T04:51:46.252Z,59.38
2023-03-16T04:54:15.921Z,59.06
2023-03-16T04:56:44.345Z,59.11
2023-03-16T04:59:29.424Z,59.29
2023-03-16T05:02:04.841Z,59.49
2023-03-16T05:04:33.951Z,59.50
2023-03-16T05:07:01.525Z,59.38
2023-03-16T05:09:31.006Z,59.29
2023-03-16T05:11:58.948Z,59.06
2023-03-16T05:14:27.130Z,59.13
2023-03-16T05:17:14.202Z,59.05
2023-03-16T05:19:42.234Z,58.76
2023-03-16T05:22:10.614Z,58.53
2023-03-16T05:24:39.185Z,58.43
2023-03-16T05:27:07.013Z,58.44
2023-03-16T05:29:34.941Z,57.89
2023-03-16T05:32:03.180Z,57.59
2023-03-16T05:34:32.260Z,57.50
2023-03-16T05:36:59.956Z,57.47
2023-03-16T05:39:28.090Z,57.40
2023-03-16T05:41:56.066Z,56.91
2023-03-16T05:44:25.773Z,57.05
2023-03-16T05:47:04.022Z,55.91
2023-03-16T05:49:33.368Z,56.59
2023-03-16T05:52:03.629Z,55.96
2023-03-16T05:54:32.940Z,56.27
2023-03-16T05:57:00.557Z,56.41
2023-03-16T05:59:28.938Z,56.48
2023-03-16T06:01:57.774Z,56.51
2023-03-16T06:04:26.873Z,56.41
2023-03-16T06:06:54.789Z,56.51
2023-03-16T06:09:24.515Z,56.45
2023-03-16T06:11:52.264Z,56.47
2023-03-16T06:14:20.981Z,56.14
2023-03-16T06:16:48.745Z,56.10
2023-03-16T06:19:16.984Z,56.21
2023-03-16T06:21:45.474Z,56.34
2023-03-16T06:24:13.417Z,56.54
2023-03-16T06:26:41.205Z,56.57
2023-03-16T06:29:11.255Z,56.62
2023-03-16T06:31:40.328Z,56.83
2023-03-16T06:34:08.271Z,56.91
2023-03-16T06:36:38.068Z,57.02
2023-03-16T06:39:06.744Z,57.17
2023-03-16T06:41:39.085Z,57.40
2023-03-16T06:44:07.145Z,57.68
2023-03-16T06:46:37.378Z,57.95
2023-03-16T06:49:05.303Z,58.00
2023-03-16T06:51:33.477Z,58.13
2023-03-16T06:54:01.482Z,58.36
2023-03-16T06:56:31.163Z,58.64
2023-03-16T06:58:59.053Z,58.78
2023-03-16T07:01:27.056Z,58.77
2023-03-16T07:03:54.846Z,58.74
2023-03-16T07:06:42.529Z,58.86
2023-03-16T07:09:29.540Z,58.55
2023-03-16T07:11:57.066Z,58.54
2023-03-16T07:14:25.737Z,58.44
2023-03-16T07:16:54.295Z,58.33
2023-03-16T07:19:22.771Z,58.24
2023-03-16T07:21:51.067Z,58.50
2023-03-16T07:24:20.619Z,58.92
2023-03-16T07:26:48.597Z,59.26
2023-03-16T07:29:18.184Z,59.02
2023-03-16T07:31:46.331Z,59.16
2023-03-16T07:34:16.011Z,59.28
2023-03-16T07:36:47.666Z,59.65
2023-03-16T07:39:17.210Z,59.53
2023-03-16T07:41:44.848Z,59.53
2023-03-16T07:44:17.594Z,59.64
2023-03-16T07:46:47.362Z,59.53
2023-03-16T07:49:16.296Z,59.35
2023-03-16T07:51:44.169Z,59.37
2023-03-16T07:54:13.548Z,59.35
2023-03-16T07:56:48.862Z,58.94
2023-03-16T07:59:12.984Z,58.77
2023-03-16T08:01:41.141Z,58.64
2023-03-16T08:04:11.831Z,58.86
2023-03-16T08:06:39.609Z,58.32
2023-03-16T08:09:07.935Z,58.17
2023-03-16T08:11:37.627Z,57.32
2023-03-16T08:14:06.418Z,57.05
2023-03-16T08:16:44.611Z,57.31
2023-03-16T08:19:12.713Z,57.71
2023-03-16T08:21:59.762Z,57.06
2023-03-16T08:24:11.526Z,57.45
2023-03-16T08:26:40.229Z,57.81
2023-03-16T08:29:08.458Z,57.99
2023-03-16T08:31:36.930Z,58.51
2023-03-16T08:34:10.379Z,58.56
2023-03-16T08:36:39.953Z,58.67
2023-03-16T08:39:07.908Z,58.74
2023-03-16T08:41:40.727Z,58.73
2023-03-16T08:44:10.477Z,58.67
2023-03-16T08:46:38.817Z,58.75
2023-03-16T08:49:06.802Z,58.78
2023-03-16T08:51:34.583Z,58.78
2023-03-16T08:54:02.826Z,58.86
2023-03-16T08:56:32.035Z,59.15
2023-03-16T08:58:59.661Z,59.23
2023-03-16T09:01:27.513Z,59.45
2023-03-16T09:03:55.376Z,59.63
2023-03-16T09:06:23.970Z,59.81
2023-03-16T09:08:52.415Z,60.09
2023-03-16T09:11:21.710Z,60.12
2023-03-16T09:13:52.419Z,60.49
2023-03-16T09:16:22.093Z,60.84
2023-03-16T09:18:49.842Z,61.67
2023-03-16T09:21:18.106Z,61.88
2023-03-16T09:23:45.999Z,62.90
2023-03-16T09:26:14.597Z,62.31
2023-03-16T09:28:42.480Z,62.80
2023-03-16T09:31:19.404Z,62.87
2023-03-16T09:33:47.578Z,65.11
2023-03-16T09:36:15.736Z,66.75
2023-03-16T09:38:44.441Z,66.53
2023-03-16T09:41:40.574Z,66.62
2023-03-16T09:44:39.446Z,66.31
2023-03-16T09:47:10.882Z,66.66
2023-03-16T09:49:44.062Z,65.97
2023-03-16T09:52:42.479Z,65.93
2023-03-16T09:55:31.572Z,66.29
2023-03-16T09:58:01.557Z,66.33
2023-03-16T10:00:40.924Z,66.72
2023-03-16T10:03:21.098Z,67.24
2023-03-16T10:05:54.319Z,66.52
2023-03-16T10:08:42.799Z,66.10
2023-03-16T10:11:33.998Z,66.49
2023-03-16T10:14:22.455Z,66.54
2023-03-16T10:17:02.555Z,66.35
2023-03-16T10:19:53.658Z,67.79
2023-03-16T10:22:29.433Z,67.90
2023-03-16T10:25:45.294Z,67.07
2023-03-16T10:28:20.723Z,68.18
2023-03-16T10:30:51.670Z,67.86
2023-03-16T10:33:30.049Z,68.85
2023-03-16T10:36:21.071Z,68.31
2023-03-16T10:38:59.229Z,68.82
2023-03-16T10:41:34.879Z,69.06
2023-03-16T10:44:16.325Z,69.57
2023-03-16T10:46:50.744Z,70.32
2023-03-16T10:49:28.420Z,71.88
2023-03-16T10:52:00.474Z,72.18
2023-03-16T10:54:34.907Z,72.81
2023-03-16T10:57:16.620Z,73.02
2023-03-16T10:59:52.340Z,72.85
2023-03-16T11:02:27.013Z,71.91
2023-03-16T11:04:56.001Z,71.71
2023-03-16T11:07:25.203Z,71.16
2023-03-16T11:09:55.521Z,71.56
2023-03-16T11:12:30.813Z,72.00
2023-03-16T11:15:25.169Z,71.63
2023-03-16T11:17:51.443Z,71.51
2023-03-16T11:20:28.048Z,71.35
2023-03-16T11:22:56.263Z,71.04
2023-03-16T11:25:37.344Z,70.55
2023-03-16T11:28:16.370Z,71.24
2023-03-16T11:33:58.325Z,71.18
2023-03-16T11:36:37.309Z,71.52
2023-03-16T11:39:40.042Z,71.51
2023-03-16T11:42:15.814Z,71.40
2023-03-16T11:45:04.999Z,71.37
2023-03-16T11:47:38.024Z,71.60
2023-03-16T11:50:29.662Z,70.97
2023-03-16T11:53:22.190Z,71.36
2023-03-16T11:55:59.094Z,71.75
2023-03-16T11:58:48.891Z,72.17
2023-03-16T12:01:39.434Z,72.12
2023-03-16T12:04:46.046Z,72.51
2023-03-16T12:07:20.062Z,72.37
2023-03-16T12:10:29.576Z,71.91
2023-03-16T12:13:24.466Z,72.60
2023-03-16T12:15:57.464Z,73.68
2023-03-16T12:19:06.279Z,72.68
2023-03-16T12:21:45.021Z,73.26
2023-03-16T12:24:21.528Z,74.16
2023-03-16T12:26:49.650Z,73.03
2023-03-16T12:29:42.251Z,73.75
2023-03-16T12:32:21.238Z,74.49
2023-03-16T12:34:54.129Z,74.21
2023-03-16T12:37:48.647Z,73.78
2023-03-16T12:40:40.130Z,75.08
2023-03-16T12:43:25.668Z,74.45
2023-03-16T12:46:07.786Z,74.34
2023-03-16T12:48:44.057Z,73.83
2023-03-16T12:51:13.748Z,74.85
2023-03-16T12:53:52.819Z,73.91
2023-03-16T12:56:31.498Z,73.72
2023-03-16T12:59:02.826Z,73.61
2023-03-16T13:01:38.088Z,73.26
2023-03-16T13:04:23.157Z,72.94
2023-03-16T13:07:04.731Z,72.81
2023-03-16T13:09:36.644Z,73.66
2023-03-16T13:12:06.072Z,73.25
2023-03-16T13:14:41.188Z,72.49
2023-03-16T13:17:23.025Z,71.40
2023-03-16T13:20:29.177Z,72.56
2023-03-16T13:22:52.738Z,71.88
2023-03-16T13:25:31.800Z,72.27
2023-03-16T13:28:00.152Z,72.50
2023-03-16T13:30:33.836Z,72.03
2023-03-16T13:33:16.356Z,71.42
2023-03-16T13:35:46.508Z,71.65
2023-03-16T13:38:16.969Z,71.51
2023-03-16T13:40:54.778Z,71.02
2023-03-16T13:43:32.074Z,70.77
2023-03-16T13:46:00.537Z,70.48
2023-03-16T13:48:29.398Z,70.18
2023-03-16T13:50:58.351Z,69.53
2023-03-16T13:53:29.976Z,69.71
2023-03-16T13:56:01.821Z,69.75
2023-03-16T13:58:35.411Z,69.30
2023-03-16T14:01:07.764Z,69.11
2023-03-16T14:03:39.090Z,68.44
2023-03-16T14:06:10.467Z,66.62
2023-03-16T14:08:40.130Z,67.69
2023-03-16T14:11:10.202Z,67.67
2023-03-16T14:13:38.983Z,67.35
2023-03-16T14:16:17.173Z,66.35
2023-03-16T14:19:07.888Z,65.11
2023-03-16T14:21:36.579Z,65.56
2023-03-16T14:24:07.271Z,65.74
2023-03-16T14:26:45.990Z,65.07
2023-03-16T14:29:31.633Z,64.36
2023-03-16T14:31:59.887Z,64.13
2023-03-16T14:34:33.486Z,64.21
2023-03-16T14:37:12.529Z,63.99
2023-03-16T14:39:41.295Z,64.03
2023-03-16T14:42:26.852Z,63.23
2023-03-16T14:44:56.684Z,63.16
2023-03-16T14:47:30.276Z,63.69
2023-03-16T14:50:06.257Z,63.39
2023-03-16T14:52:35.025Z,63.82
2023-03-16T14:55:14.023Z,63.64
2023-03-16T14:57:44.608Z,62.19
2023-03-16T15:00:17.451Z,63.78
2023-03-16T15:03:06.064Z,64.79
2023-03-16T15:05:38.534Z,65.44
2023-03-16T15:08:15.262Z,65.62
2023-03-16T15:10:44.868Z,66.83
2023-03-16T15:13:40.134Z,66.45
2023-03-16T15:16:11.922Z,66.55
2023-03-16T15:18:41.288Z,67.08
2023-03-16T15:21:22.191Z,67.58
2023-03-16T15:23:49.916Z,68.08
2023-03-16T15:26:24.561Z,68.68
2023-03-16T15:28:51.048Z,68.45
2023-03-16T15:31:18.604Z,69.07
2023-03-16T15:33:46.459Z,69.52
2023-03-16T15:36:21.612Z,69.11
2023-03-16T15:38:52.715Z,69.15
2023-03-16T15:41:20.846Z,69.59
2023-03-16T15:43:48.622Z,69.26
2023-03-16T15:46:16.558Z,69.40
2023-03-16T15:48:44.389Z,69.40
2023-03-16T15:51:22.865Z,69.33
2023-03-16T15:53:58.828Z,69.49
2023-03-16T15:56:32.239Z,69.48
2023-03-16T15:59:05.567Z,69.17
2023-03-16T16:01:38.998Z,69.15
2023-03-16T16:04:15.112Z,69.12
2023-03-16T16:06:43.205Z,68.80
2023-03-16T16:09:10.921Z,68.54
2023-03-16T16:11:40.762Z,68.30
2023-03-16T16:14:15.121Z,68.20
2023-03-16T16:16:47.788Z,68.26
2023-03-16T16:19:16.242Z,67.98
2023-03-16T16:21:44.165Z,68.12
2023-03-16T16:24:11.996Z,68.09
2023-03-16T16:26:56.170Z,68.02
2023-03-16T16:29:26.673Z,67.59
2023-03-16T16:31:54.688Z,67.54
2023-03-16T16:34:24.023Z,67.11
2023-03-16T16:36:53.352Z,66.92
2023-03-16T16:39:21.719Z,67.05
2023-03-16T16:41:53.575Z,66.80
2023-03-16T16:44:26.684Z,66.78
2023-03-16T16:46:54.783Z,66.68
2023-03-16T16:49:30.066Z,66.71
2023-03-16T16:51:58.501Z,66.60
2023-03-16T16:54:29.968Z,66.61
2023-03-16T16:57:00.221Z,66.50
2023-03-16T16:59:34.252Z,66.52
2023-03-16T17:02:06.459Z,66.51
2023-03-16T17:04:34.351Z,66.67
2023-03-16T17:07:02.358Z,66.81
2023-03-16T17:09:30.494Z,66.73
2023-03-16T17:12:00.820Z,66.68
2023-03-16T17:14:30.330Z,66.61
2023-03-16T17:17:04.393Z,66.62
2023-03-16T17:19:32.248Z,66.76
2023-03-16T17:22:00.931Z,66.79
2023-03-16T17:24:29.538Z,67.07
2023-03-16T17:26:59.981Z,67.21
2023-03-16T17:29:33.468Z,67.25
2023-03-16T17:32:04.304Z,67.40
2023-03-16T17:34:33.884Z,67.57
2023-03-16T17:37:02.350Z,67.61
2023-03-16T17:39:33.436Z,67.76
2023-03-16T17:42:06.665Z,67.97
2023-03-16T17:44:39.414Z,67.96
2023-03-16T17:47:26.853Z,68.16
2023-03-16T17:49:56.333Z,68.14
2023-03-16T17:52:27.860Z,68.20
2023-03-16T17:54:55.596Z,68.11
2023-03-16T17:57:28.554Z,68.27
2023-03-16T17:59:56.744Z,68.44
2023-03-16T18:02:55.597Z,68.77
2023-03-16T18:05:34.190Z,68.71
2023-03-16T18:08:26.111Z,68.83
2023-03-16T18:11:07.198Z,68.98
2023-03-16T18:13:38.671Z,68.98
2023-03-16T18:16:07.706Z,68.99
2023-03-16T18:18:42.296Z,68.93
2023-03-16T18:21:19.412Z,68.96
2023-03-16T18:23:48.803Z,68.94
2023-03-16T18:26:17.533Z,68.87
2023-03-16T18:28:45.984Z,68.82
2023-03-16T18:31:25.824Z,68.70
2023-03-16T18:34:00.225Z,68.66
2023-03-16T18:36:37.334Z,68.68
2023-03-16T18:39:09.809Z,68.71
2023-03-16T18:41:37.707Z,68.76
2023-03-16T18:44:25.350Z,68.93
2023-03-16T18:46:58.580Z,69.00
2023-03-16T18:49:35.976Z,68.78
2023-03-16T18:52:07.964Z,68.35
2023-03-16T18:54:35.773Z,68.05
2023-03-16T18:57:05.265Z,67.69
2023-03-16T18:59:32.727Z,66.67
2023-03-16T19:02:00.940Z,65.79
2023-03-16T19:04:32.545Z,64.99
2023-03-16T19:07:00.273Z,64.01
2023-03-16T19:09:30.600Z,63.36
2023-03-16T19:11:59.111Z,62.58
2023-03-16T19:14:34.556Z,61.59
2023-03-16T19:17:02.543Z,60.81
2023-03-16T19:19:30.315Z,60.41
2023-03-16T19:22:15.321Z,60.23
2023-03-16T19:24:50.539Z,59.55
2023-03-16T19:27:28.534Z,59.04
2023-03-16T19:29:56.241Z,59.10
2023-03-16T19:32:23.932Z,58.91
2023-03-16T19:34:51.693Z,58.64
2023-03-16T19:37:19.362Z,58.47
2023-03-16T19:39:47.144Z,58.42
2023-03-16T19:42:25.613Z,58.10
2023-03-16T19:44:53.083Z,58.02
2023-03-16T19:47:35.810Z,58.07
2023-03-16T19:50:14.007Z,57.96
2023-03-16T19:52:41.977Z,57.69
2023-03-16T19:55:14.020Z,57.54
2023-03-16T19:57:42.496Z,57.41
2023-03-16T20:00:24.785Z,57.26
2023-03-16T20:02:55.860Z,57.01
2023-03-16T20:05:28.380Z,56.70
2023-03-16T20:08:00.879Z,56.57
2023-03-16T20:10:31.467Z,56.32
2023-03-16T20:13:01.361Z,56.30
2023-03-16T20:15:32.738Z,56.02
2023-03-16T20:18:00.443Z,56.01
2023-03-16T20:20:33.067Z,55.88
2023-03-16T20:23:00.931Z,55.94
2023-03-16T20:25:34.554Z,55.84
2023-03-16T20:28:03.299Z,55.48
2023-03-16T20:30:31.368Z,55.79
2023-03-16T20:32:59.001Z,55.63
2023-03-16T20:35:31.822Z,55.50
2023-03-16T20:37:59.715Z,55.39
2023-03-16T20:40:27.781Z,55.09
2023-03-16T20:42:55.929Z,55.08
2023-03-16T20:45:30.021Z,54.95
2023-03-16T20:47:57.840Z,54.83
2023-03-16T20:50:29.426Z,54.91
2023-03-16T20:52:57.539Z,54.96
2023-03-16T20:55:28.566Z,54.76
2023-03-16T20:57:57.032Z,54.77
2023-03-16T21:00:34.938Z,54.30
2023-03-16T21:03:07.125Z,54.54
2023-03-16T21:05:35.204Z,54.64
2023-03-16T21:08:03.117Z,54.58
2023-03-16T21:10:31.300Z,54.52
2023-03-16T21:12:59.090Z,54.46
2023-03-16T21:15:32.843Z,54.54
2023-03-16T21:18:04.179Z,54.45
2023-03-16T21:20:35.052Z,54.31
2023-03-16T21:23:03.510Z,53.86
2023-03-16T21:25:39.407Z,53.84
2023-03-16T21:28:10.300Z,53.67
2023-03-16T21:30:42.776Z,53.58
2023-03-16T21:33:18.664Z,53.21
2023-03-16T21:35:46.599Z,53.25
2023-03-16T21:38:18.821Z,53.24
2023-03-16T21:40:48.149Z,52.85
2023-03-16T21:43:16.732Z,52.81
2023-03-16T21:45:46.255Z,52.78
2023-03-16T21:48:19.602Z,52.78
2023-03-16T21:50:48.011Z,52.58
2023-03-16T21:53:21.666Z,52.64
2023-03-16T21:55:50.124Z,52.70
2023-03-16T21:58:19.018Z,52.54
2023-03-16T22:00:47.637Z,52.34
2023-03-16T22:03:48.008Z,52.39
2023-03-16T22:06:01.829Z,52.44
2023-03-16T22:08:33.868Z,52.35
2023-03-16T22:11:02.518Z,52.34
2023-03-16T22:13:29.964Z,52.53
2023-03-16T22:15:58.413Z,52.48
2023-03-16T22:18:36.318Z,52.56
2023-03-16T22:21:35.853Z,52.70
2023-03-16T22:24:07.100Z,52.49
2023-03-16T22:26:35.172Z,52.65
2023-03-16T22:29:27.590Z,52.64
2023-03-16T22:32:06.392Z,52.66
2023-03-16T22:34:56.440Z,52.87
2023-03-16T22:37:28.861Z,52.88
2023-03-16T22:39:58.508Z,52.90
2023-03-16T22:42:36.393Z,52.88
2023-03-16T22:45:21.152Z,52.93
2023-03-16T22:47:49.590Z,52.94
2023-03-16T22:50:21.028Z,52.81
2023-03-16T22:52:52.760Z,53.06
2023-03-16T22:55:33.793Z,53.09
2023-03-16T22:58:24.570Z,53.25
2023-03-16T23:00:52.475Z,53.29
2023-03-16T23:03:22.790Z,53.30
2023-03-16T23:05:50.601Z,53.29
2023-03-16T23:08:22.717Z,53.18
2023-03-16T23:10:53.972Z,53.17
2023-03-16T23:13:24.747Z,52.99
2023-03-16T23:15:53.363Z,53.21
2023-03-16T23:18:24.863Z,53.60
2023-03-16T23:20:52.834Z,53.70
2023-03-16T23:23:20.767Z,54.03
2023-03-16T23:25:48.747Z,53.99
2023-03-16T23:28:21.075Z,53.86
2023-03-16T23:30:49.212Z,53.96
2023-03-16T23:33:17.209Z,54.22
2023-03-16T23:35:45.966Z,54.22
2023-03-16T23:38:13.673Z,54.04
2023-03-16T23:40:41.626Z,54.17
2023-03-16T23:43:09.499Z,54.75
2023-03-16T23:45:42.715Z,54.81
2023-03-16T23:48:18.494Z,54.91
2023-03-16T23:50:50.307Z,54.95
2023-03-16T23:53:19.926Z,55.19
2023-03-16T23:55:48.259Z,55.52
2023-03-16T23:58:16.552Z,55.64
